createdAt,value
2023-06-07T00:02:44.126Z,15.85
2023-06-07T00:05:49.138Z,15.00
2023-06-07T00:08:53.865Z,15.30
2023-06-07T00:11:58.551Z,18.38
2023-06-07T00:15:02.238Z,17.27
2023-06-07T00:18:06.208Z,16.08
2023-06-07T00:21:10.256Z,14.43
2023-06-07T00:24:14.555Z,15.95
2023-06-07T00:27:19.477Z,14.75
2023-06-07T00:30:23.449Z,18.05
2023-06-07T00:33:28.799Z,17.17
2023-06-07T00:36:35.011Z,16.75
2023-06-07T00:39:38.988Z,16.13
2023-06-07T00:42:43.742Z,13.48
2023-06-07T00:45:48.126Z,14.65
2023-06-07T00:48:52.999Z,15.32
2023-06-07T00:51:57.573Z,15.90
2023-06-07T00:55:03.413Z,15.93
2023-06-07T00:58:07.547Z,16.88
2023-06-07T01:01:11.986Z,16.13
2023-06-07T01:04:19.262Z,14.93
2023-06-07T01:07:25.831Z,15.90
2023-06-07T01:10:30.886Z,16.02
2023-06-07T01:13:35.614Z,13.88
2023-06-07T01:16:49.708Z,17.45
2023-06-07T01:19:54.702Z,13.50
2023-06-07T01:23:00.865Z,14.50
2023-06-07T01:26:06.011Z,14.68
2023-06-07T01:29:10.188Z,15.43
2023-06-07T01:32:14.658Z,16.23
2023-06-07T01:35:20.651Z,16.30
2023-06-07T01:38:27.737Z,17.00
2023-06-07T01:41:33.300Z,16.65
2023-06-07T01:44:39.777Z,17.50
2023-06-07T01:47:44.423Z,19.27
2023-06-07T01:50:48.315Z,20.80
2023-06-07T01:53:52.621Z,15.88
2023-06-07T01:57:22.016Z,16.30
2023-06-07T02:00:32.001Z,17.27
2023-06-07T02:03:42.886Z,17.38
2023-06-07T02:06:50.166Z,14.15
2023-06-07T02:09:54.934Z,17.00
2023-06-07T02:13:00.565Z,16.77
2023-06-07T02:16:07.601Z,16.27
2023-06-07T02:19:12.410Z,16.40
2023-06-07T02:22:16.601Z,16.42
2023-06-07T02:25:21.343Z,17.05
2023-06-07T02:28:25.355Z,19.35
2023-06-07T02:31:29.353Z,16.50
2023-06-07T02:34:37.224Z,17.35
2023-06-07T02:37:41.401Z,17.08
2023-06-07T02:40:45.374Z,16.00
2023-06-07T02:43:49.568Z,15.98
2023-06-07T02:46:53.635Z,15.55
2023-06-07T02:49:58.744Z,15.88
2023-06-07T02:53:03.522Z,14.68
2023-06-07T02:56:07.546Z,19.08
2023-06-07T02:59:11.309Z,20.90
2023-06-07T03:02:16.025Z,19.95
2023-06-07T03:05:20.298Z,18.65
2023-06-07T03:08:24.386Z,17.52
2023-06-07T03:11:28.442Z,17.88
2023-06-07T03:14:32.303Z,17.30
2023-06-07T03:17:37.108Z,16.73
2023-06-07T03:20:41.012Z,16.23
2023-06-07T03:23:45.181Z,15.70
2023-06-07T03:26:49.716Z,18.75
2023-06-07T03:29:53.796Z,16.92
2023-06-07T03:32:58.112Z,19.25
2023-06-07T03:36:02.841Z,16.05
2023-06-07T03:39:06.955Z,18.63
2023-06-07T03:42:11.276Z,20.20
2023-06-07T03:45:15.544Z,18.30
2023-06-07T03:48:19.750Z,16.33
2023-06-07T03:51:24.245Z,19.95
2023-06-07T03:54:28.468Z,17.67
2023-06-07T03:57:32.671Z,17.88
2023-06-07T04:00:36.470Z,18.20
2023-06-07T04:03:40.747Z,17.73
2023-06-07T04:06:45.493Z,18.67
2023-06-07T04:09:49.669Z,17.38
2023-06-07T04:12:53.722Z,16.42
2023-06-07T04:15:57.683Z,16.98
2023-06-07T04:19:02.543Z,16.95
2023-06-07T04:22:07.032Z,16.65
2023-06-07T04:25:11.329Z,14.95
2023-06-07T04:28:15.427Z,17.25
2023-06-07T04:31:19.231Z,18.35
2023-06-07T04:34:27.017Z,16.15
2023-06-07T04:37:32.337Z,20.95
2023-06-07T04:40:42.266Z,15.35
2023-06-07T04:43:49.931Z,18.45
2023-06-07T04:47:02.047Z,13.98
2023-06-07T04:50:10.080Z,13.80
2023-06-07T04:53:20.815Z,13.27
2023-06-07T04:56:27.153Z,14.82
2023-06-07T04:59:36.043Z,14.82
2023-06-07T05:02:44.671Z,14.73
2023-06-07T05:05:49.511Z,11.38
2023-06-07T05:08:53.661Z,13.13
2023-06-07T05:11:57.784Z,14.00
2023-06-07T05:15:02.117Z,12.50
2023-06-07T05:18:08.367Z,12.45
2023-06-07T05:21:13.211Z,12.45
2023-06-07T05:24:17.748Z,13.25
2023-06-07T05:27:22.230Z,16.73
2023-06-07T05:30:26.805Z,14.82
2023-06-07T05:33:32.036Z,13.88
2023-06-07T05:36:36.820Z,14.95
2023-06-07T05:39:42.921Z,13.77
2023-06-07T05:42:47.249Z,18.92
2023-06-07T05:45:51.409Z,13.32
2023-06-07T05:48:55.331Z,15.18
2023-06-07T05:51:59.370Z,14.52
2023-06-07T05:55:03.331Z,16.15
2023-06-07T05:58:07.628Z,12.65
2023-06-07T06:01:12.304Z,13.65
2023-06-07T06:04:19.478Z,17.45
2023-06-07T06:07:23.396Z,13.38
2023-06-07T06:10:27.428Z,13.57
2023-06-07T06:13:33.795Z,13.57
2023-06-07T06:16:37.974Z,18.27
2023-06-07T06:19:42.829Z,13.60
2023-06-07T06:22:47.036Z,14.20
2023-06-07T06:25:51.886Z,14.32
2023-06-07T06:28:56.009Z,15.52
2023-06-07T06:32:03.591Z,16.88
2023-06-07T06:35:08.468Z,17.48
2023-06-07T06:38:12.829Z,15.77
2023-06-07T06:41:16.901Z,16.65
2023-06-07T06:44:20.536Z,17.60
2023-06-07T06:47:26.330Z,16.90
2023-06-07T06:50:33.564Z,15.10
2023-06-07T06:53:38.263Z,16.85
2023-06-07T06:56:42.596Z,16.50
2023-06-07T06:59:49.387Z,17.70
2023-06-07T07:02:54.745Z,17.05
2023-06-07T07:05:58.825Z,16.98
2023-06-07T07:09:02.979Z,19.83
2023-06-07T07:12:07.933Z,15.00
2023-06-07T07:15:12.451Z,15.00
2023-06-07T07:18:16.495Z,16.17
2023-06-07T07:21:20.486Z,16.23
2023-06-07T07:24:24.282Z,14.38
2023-06-07T07:27:28.314Z,16.45
2023-06-07T07:30:32.845Z,17.77
2023-06-07T07:33:37.117Z,15.82
2023-06-07T07:36:41.244Z,18.48
2023-06-07T07:39:45.470Z,16.08
2023-06-07T07:42:50.054Z,13.27
2023-06-07T07:45:54.373Z,12.93
2023-06-07T07:48:58.356Z,16.27
2023-06-07T07:52:02.446Z,13.57
2023-06-07T07:55:08.675Z,13.38
2023-06-07T07:58:13.357Z,17.25
2023-06-07T08:01:19.379Z,18.25
2023-06-07T08:04:23.453Z,13.93
2023-06-07T08:07:27.805Z,15.05
2023-06-07T08:10:32.171Z,15.32
2023-06-07T08:13:36.533Z,16.13
2023-06-07T08:16:40.868Z,12.65
2023-06-07T08:19:45.179Z,17.20
2023-06-07T08:22:51.675Z,21.33
2023-06-07T08:25:58.953Z,15.18
2023-06-07T08:29:02.666Z,15.50
2023-06-07T08:32:07.074Z,16.33
2023-06-07T08:35:12.216Z,20.45
2023-06-07T08:38:16.344Z,18.65
2023-06-07T08:41:20.553Z,15.43
2023-06-07T08:44:24.653Z,19.17
2023-06-07T08:47:29.480Z,15.60
2023-06-07T08:50:35.222Z,14.68
2023-06-07T08:53:49.737Z,13.93
2023-06-07T08:56:56.297Z,13.35
2023-06-07T09:00:01.559Z,14.35
2023-06-07T09:03:07.466Z,17.33
2023-06-07T09:06:12.361Z,18.63
2023-06-07T09:09:16.488Z,15.95
2023-06-07T09:12:20.987Z,15.52
2023-06-07T09:15:25.008Z,13.30
2023-06-07T09:18:54.706Z,12.68
2023-06-07T09:21:59.265Z,12.43
2023-06-07T09:25:10.281Z,15.52
2023-06-07T09:28:15.363Z,12.15
2023-06-07T09:31:30.430Z,16.15
2023-06-07T09:34:34.918Z,15.27
2023-06-07T09:37:47.217Z,13.95
2023-06-07T09:40:52.384Z,17.42
2023-06-07T09:43:56.710Z,14.05
2023-06-07T09:47:04.545Z,9.68
2023-06-07T09:50:11.118Z,13.02
2023-06-07T09:53:16.186Z,11.80
2023-06-07T09:56:22.738Z,9.50
2023-06-07T09:59:27.006Z,15.23
2023-06-07T10:02:31.328Z,9.85
2023-06-07T10:05:36.040Z,9.88
2023-06-07T10:08:40.297Z,10.10
2023-06-07T10:11:47.353Z,12.27
2023-06-07T10:14:53.401Z,8.95
2023-06-07T10:18:12.396Z,11.20
2023-06-07T10:21:20.294Z,11.68
2023-06-07T10:24:36.656Z,11.95
2023-06-07T10:28:26.151Z,11.65
2023-06-07T10:31:35.816Z,9.48
2023-06-07T10:34:40.665Z,15.10
2023-06-07T10:37:45.411Z,12.68
2023-06-07T10:40:49.853Z,10.65
2023-06-07T10:43:53.651Z,10.98
2023-06-07T10:47:23.315Z,12.00
2023-06-07T10:50:27.300Z,9.30
2023-06-07T10:53:51.442Z,9.52
2023-06-07T10:56:55.349Z,10.10
2023-06-07T11:00:31.208Z,11.68
2023-06-07T11:03:38.995Z,15.25
2023-06-07T11:07:15.866Z,10.85
2023-06-07T11:10:32.368Z,11.60
2023-06-07T11:13:48.435Z,10.20
2023-06-07T11:16:52.530Z,10.00
2023-06-07T11:19:58.901Z,9.48
2023-06-07T11:23:26.751Z,8.50
2023-06-07T11:26:35.615Z,10.68
2023-06-07T11:29:40.580Z,11.27
2023-06-07T11:32:46.142Z,8.05
2023-06-07T11:35:50.920Z,10.93
2023-06-07T11:38:56.942Z,11.35
2023-06-07T11:42:01.127Z,11.55
2023-06-07T11:45:05.666Z,10.65
2023-06-07T11:48:10.860Z,8.15
2023-06-07T11:51:15.453Z,11.48
2023-06-07T11:54:24.264Z,11.70
2023-06-07T11:57:33.269Z,9.65
2023-06-07T12:00:38.666Z,9.93
2023-06-07T12:03:45.268Z,15.30
2023-06-07T12:06:52.538Z,13.25
2023-06-07T12:09:56.890Z,10.05
2023-06-07T12:13:11.144Z,10.55
2023-06-07T12:16:15.574Z,10.25
2023-06-07T12:19:20.146Z,12.00
2023-06-07T12:22:26.670Z,13.18
2023-06-07T12:25:30.837Z,10.77
2023-06-07T12:28:35.097Z,11.25
2023-06-07T12:31:42.335Z,11.05
2023-06-07T12:34:46.833Z,10.32
2023-06-07T12:37:51.104Z,7.25
2023-06-07T12:40:55.355Z,6.97
2023-06-07T12:44:00.833Z,7.82
2023-06-07T12:47:04.929Z,10.98
2023-06-07T12:50:10.100Z,12.40
2023-06-07T12:53:14.334Z,11.95
2023-06-07T12:56:18.552Z,8.70
2023-06-07T12:59:22.701Z,9.68
2023-06-07T13:02:27.849Z,9.02
2023-06-07T13:05:32.407Z,11.77
2023-06-07T13:08:36.820Z,12.35
2023-06-07T13:11:42.882Z,9.80
2023-06-07T13:14:47.585Z,9.82
2023-06-07T13:17:51.755Z,12.57
2023-06-07T13:20:56.437Z,10.23
2023-06-07T13:24:00.587Z,13.40
2023-06-07T13:27:05.063Z,7.85
2023-06-07T13:30:09.839Z,12.40
2023-06-07T13:33:18.216Z,12.32
2023-06-07T13:36:23.409Z,9.75
2023-06-07T13:39:27.648Z,9.23
2023-06-07T13:42:32.418Z,10.40
2023-06-07T13:45:37.200Z,14.85
2023-06-07T13:48:42.408Z,8.27
2023-06-07T13:51:47.425Z,8.93
2023-06-07T13:54:51.660Z,9.63
2023-06-07T13:57:56.075Z,11.85
2023-06-07T14:01:03.853Z,11.25
2023-06-07T14:04:08.659Z,9.02
2023-06-07T14:07:12.904Z,9.75
2023-06-07T14:10:17.452Z,11.25
2023-06-07T14:13:22.260Z,12.68
2023-06-07T14:16:28.390Z,15.70
2023-06-07T14:19:32.971Z,13.43
2023-06-07T14:22:36.995Z,10.35
2023-06-07T14:25:40.996Z,12.25
2023-06-07T14:28:45.523Z,8.18
2023-06-07T14:31:49.666Z,10.75
2023-06-07T14:34:53.880Z,9.57
2023-06-07T14:37:58.061Z,11.95
2023-06-07T14:41:01.955Z,14.00
2023-06-07T14:44:06.660Z,10.70
2023-06-07T14:47:10.846Z,12.13
2023-06-07T14:50:15.111Z,10.13
2023-06-07T14:53:19.225Z,11.10
2023-06-07T14:56:23.493Z,11.73
2023-06-07T14:59:27.726Z,8.32
2023-06-07T15:02:32.103Z,15.38
2023-06-07T15:05:36.338Z,12.70
2023-06-07T15:08:41.032Z,10.02
2023-06-07T15:11:45.178Z,13.07
2023-06-07T15:14:49.139Z,13.38
2023-06-07T15:17:54.076Z,13.95
2023-06-07T15:20:59.973Z,16.05
2023-06-07T15:24:04.222Z,11.63
2023-06-07T15:27:08.683Z,11.30
2023-06-07T15:30:13.503Z,15.13
2023-06-07T15:33:17.801Z,16.63
2023-06-07T15:36:21.735Z,15.40
2023-06-07T15:39:25.833Z,22.63
2023-06-07T15:42:30.392Z,12.70
2023-06-07T15:45:34.454Z,13.27
2023-06-07T15:48:38.708Z,18.33
2023-06-07T15:51:42.724Z,13.68
2023-06-07T15:54:46.862Z,19.10
2023-06-07T15:57:51.644Z,17.33
2023-06-07T16:00:56.134Z,16.00
2023-06-07T16:04:00.610Z,16.75
2023-06-07T16:07:05.129Z,18.25
2023-06-07T16:10:09.543Z,19.13
2023-06-07T16:13:13.447Z,14.68
2023-06-07T16:16:17.846Z,20.30
2023-06-07T16:19:21.934Z,17.45
2023-06-07T16:22:26.186Z,17.33
2023-06-07T16:25:30.276Z,16.38
2023-06-07T16:28:34.506Z,15.50
2023-06-07T16:31:38.611Z,13.52
2023-06-07T16:34:42.727Z,15.05
2023-06-07T16:37:46.828Z,15.50
2023-06-07T16:40:50.955Z,13.38
2023-06-07T16:43:55.111Z,15.50
2023-06-07T16:46:59.902Z,14.38
2023-06-07T16:50:05.196Z,16.48
2023-06-07T16:53:09.506Z,15.05
2023-06-07T16:56:13.827Z,13.15
2023-06-07T16:59:17.812Z,16.52
2023-06-07T17:02:21.906Z,14.40
2023-06-07T17:05:26.049Z,13.95
2023-06-07T17:08:30.196Z,15.70
2023-06-07T17:11:34.454Z,17.20
2023-06-07T17:14:38.742Z,14.95
2023-06-07T17:17:42.712Z,15.57
2023-06-07T17:20:49.298Z,18.98
2023-06-07T17:23:53.737Z,16.73
2023-06-07T17:26:57.867Z,16.15
2023-06-07T17:30:02.069Z,17.80
2023-06-07T17:33:07.225Z,18.05
2023-06-07T17:36:11.557Z,16.20
2023-06-07T17:39:16.678Z,15.35
2023-06-07T17:42:22.208Z,16.27
2023-06-07T17:45:29.786Z,19.67
2023-06-07T17:48:33.682Z,18.88
2023-06-07T17:51:38.155Z,18.25
2023-06-07T17:54:42.362Z,18.13
2023-06-07T17:57:46.544Z,16.77
2023-06-07T18:00:50.667Z,17.10
2023-06-07T18:03:54.816Z,17.35
2023-06-07T18:07:01.299Z,16.85
2023-06-07T18:10:08.806Z,18.17
2023-06-07T18:13:13.216Z,21.17
2023-06-07T18:16:17.312Z,15.90
2023-06-07T18:19:21.348Z,18.40
2023-06-07T18:22:25.657Z,18.65
2023-06-07T18:25:30.610Z,14.73
2023-06-07T18:28:34.828Z,15.30
2023-06-07T18:31:40.685Z,14.25
2023-06-07T18:34:44.617Z,13.88
2023-06-07T18:37:49.063Z,17.38
2023-06-07T18:40:53.668Z,17.27
2023-06-07T18:44:01.329Z,18.73
2023-06-07T18:47:07.024Z,17.08
2023-06-07T18:50:11.923Z,21.25
2023-06-07T18:53:16.298Z,16.25
2023-06-07T18:56:21.268Z,17.10
2023-06-07T18:59:25.056Z,18.67
2023-06-07T19:02:29.610Z,14.95
2023-06-07T19:05:34.143Z,16.63
2023-06-07T19:08:39.972Z,20.60
2023-06-07T19:11:44.117Z,15.43
2023-06-07T19:14:48.287Z,16.17
2023-06-07T19:17:52.610Z,18.10
2023-06-07T19:20:57.160Z,18.42
2023-06-07T19:24:04.062Z,15.60
2023-06-07T19:27:11.858Z,17.23
2023-06-07T19:30:16.214Z,16.80
2023-06-07T19:33:20.123Z,17.13
2023-06-07T19:36:23.878Z,15.25
2023-06-07T19:39:27.832Z,16.33
2023-06-07T19:42:31.990Z,16.52
2023-06-07T19:45:36.135Z,15.93
2023-06-07T19:48:42.850Z,15.63
2023-06-07T19:51:46.737Z,13.25
2023-06-07T19:54:51.086Z,16.45
2023-06-07T19:57:55.564Z,14.23
2023-06-07T20:00:59.605Z,17.10
2023-06-07T20:04:03.347Z,15.32
2023-06-07T20:07:09.318Z,15.05
2023-06-07T20:10:14.762Z,17.02
2023-06-07T20:13:18.897Z,14.20
2023-06-07T20:16:23.304Z,15.68
2023-06-07T20:19:27.667Z,14.88
2023-06-07T20:22:34.304Z,14.18
2023-06-07T20:25:38.343Z,13.68
2023-06-07T20:28:42.400Z,14.88
2023-06-07T20:31:53.158Z,15.10
2023-06-07T20:34:58.668Z,14.73
2023-06-07T20:38:02.733Z,13.43
2023-06-07T20:41:06.786Z,14.45
2023-06-07T20:44:10.781Z,13.27
2023-06-07T20:47:14.914Z,12.88
2023-06-07T20:50:18.880Z,11.55
2023-06-07T20:53:23.141Z,10.73
2023-06-07T20:56:27.714Z,14.25
2023-06-07T20:59:32.096Z,12.05
2023-06-07T21:02:36.631Z,13.05
2023-06-07T21:05:41.347Z,10.27
2023-06-07T21:08:45.449Z,10.38
2023-06-07T21:11:50.098Z,9.85
2023-06-07T21:14:56.515Z,9.68
2023-06-07T21:18:00.664Z,11.55
2023-06-07T21:21:05.054Z,10.40
2023-06-07T21:24:09.055Z,11.70
2023-06-07T21:27:13.118Z,11.68
2023-06-07T21:30:17.571Z,13.07
2023-06-07T21:33:22.008Z,9.65
2023-06-07T21:36:26.613Z,10.20
2023-06-07T21:39:31.148Z,11.73
2023-06-07T21:42:35.076Z,12.75
2023-06-07T21:45:38.943Z,10.10
2023-06-07T21:48:43.019Z,12.90
2023-06-07T21:51:47.445Z,12.57
2023-06-07T21:54:51.589Z,12.23
2023-06-07T21:57:55.739Z,11.90
2023-06-07T22:01:00.017Z,12.40
2023-06-07T22:04:04.796Z,12.88
2023-06-07T22:07:09.008Z,14.20
2023-06-07T22:10:13.658Z,12.98
2023-06-07T22:13:21.496Z,11.32
2023-06-07T22:16:26.504Z,12.95
2023-06-07T22:19:31.298Z,14.93
2023-06-07T22:22:35.517Z,11.68
2023-06-07T22:25:41.986Z,11.93
2023-06-07T22:28:47.240Z,12.57
2023-06-07T22:31:51.348Z,12.13
2023-06-07T22:35:04.799Z,12.70
2023-06-07T22:38:13.326Z,12.60
2023-06-07T22:41:17.662Z,13.55
2023-06-07T22:44:21.780Z,12.80
2023-06-07T22:47:29.850Z,13.77
2023-06-07T22:50:38.075Z,17.58
2023-06-07T22:53:42.166Z,11.35
2023-06-07T22:56:46.190Z,13.55
2023-06-07T22:59:50.224Z,10.85
2023-06-07T23:02:54.834Z,10.63
2023-06-07T23:06:02.696Z,9.75
2023-06-07T23:09:06.758Z,12.65
2023-06-07T23:12:11.080Z,12.52
2023-06-07T23:15:16.581Z,12.68
2023-06-07T23:18:21.578Z,12.68
2023-06-07T23:21:30.146Z,12.52
2023-06-07T23:24:34.316Z,11.50
2023-06-07T23:27:44.771Z,13.55
2023-06-07T23:30:49.019Z,13.07
2023-06-07T23:33:53.408Z,13.25
2023-06-07T23:36:57.189Z,16.27
2023-06-07T23:40:03.361Z,10.18
2023-06-07T23:43:08.053Z,12.77
2023-06-07T23:46:13.003Z,14.93
2023-06-07T23:49:17.195Z,14.32
2023-06-07T23:52:21.438Z,13.20
2023-06-07T23:55:25.894Z,10.85
2023-06-07T23:58:30.083Z,11.05
